Time;durP1;ratioP1;P1;durP2;ratioP2;P2;SDS_P1;SDS_P2;PMS_P1;PMS_P2;Temp;Humidity;BMP_temperature;BMP_pressure;BME280_temperature;BME280_humidity;BME280_pressure;Samples;Min_cycle;Max_cycle;Signal;HPM_P1;HPM_P2
2022/10/27 00:01:29;;;;;;;2.60;1.90;;;;;;;11.63;100.00;99351.69;4122655;28;20215;-47
2022/10/27 00:03:31;;;;;;;1.60;1.50;;;;;;;11.57;100.00;99355.31;4119032;28;20209;-47
2022/10/27 00:05:33;;;;;;;1.70;1.60;;;;;;;11.52;100.00;99356.00;4120369;28;20210;-46
2022/10/27 00:07:36;;;;;;;1.98;1.63;;;;;;;11.45;100.00;99352.53;4129969;28;20210;-47
2022/10/27 00:09:38;;;;;;;3.47;1.90;;;;;;;11.50;100.00;99358.16;4116969;28;20209;-47
2022/10/27 00:11:39;;;;;;;3.03;1.70;;;;;;;11.32;100.00;99355.47;4121216;28;20202;-46
2022/10/27 00:13:41;;;;;;;2.50;2.30;;;;;;;11.27;100.00;99358.13;4122735;28;20198;-48
2022/10/27 00:15:43;;;;;;;2.40;1.75;;;;;;;11.27;100.00;99358.13;4120450;28;20409;-47
2022/10/27 00:17:45;;;;;;;1.42;1.30;;;;;;;11.33;100.00;99351.69;4132393;28;20830;-46
2022/10/27 00:19:46;;;;;;;2.03;1.92;;;;;;;11.33;100.00;99351.69;4116815;28;20228;-48
2022/10/27 00:21:50;;;;;;;1.38;1.30;;;;;;;11.37;100.00;99358.38;4118673;28;20215;-47
2022/10/27 00:23:51;;;;;;;3.20;1.65;;;;;;;11.35;100.00;99355.03;4125121;28;20209;-47
2022/10/27 00:25:54;;;;;;;1.42;1.30;;;;;;;11.34;100.00;99352.53;4123304;28;20684;-48
2022/10/27 00:27:55;;;;;;;1.52;1.42;;;;;;;11.30;100.00;99349.41;4102047;28;20749;-47
2022/10/27 00:29:57;;;;;;;1.88;1.23;;;;;;;11.27;100.00;99341.69;4134042;28;20210;-47
2022/10/27 00:31:59;;;;;;;2.60;1.30;;;;;;;11.28;100.00;99337.88;4115983;28;20594;-47
2022/10/27 00:34:01;;;;;;;3.13;1.60;;;;;;;11.14;100.00;99341.88;4115668;28;20301;-47
2022/10/27 00:36:11;;;;;;;2.67;1.85;;;;;;;11.09;100.00;99349.94;4119920;28;20318;-47
2022/10/27 00:38:12;;;;;;;7.28;2.22;;;;;;;11.12;100.00;99338.50;4125007;28;20695;-47
2022/10/27 00:40:14;;;;;;;2.33;1.50;;;;;;;11.10;100.00;99351.63;4117166;28;21008;-46
2022/10/27 00:42:16;;;;;;;8.52;1.60;;;;;;;11.09;100.00;99349.94;4121956;28;20306;-47
2022/10/27 00:44:36;;;;;;;1.60;1.50;;;;;;;11.07;100.00;99351.25;4114949;28;20293;-46
2022/10/27 00:46:44;;;;;;;3.25;1.58;;;;;;;11.06;100.00;99347.69;4120505;28;20241;-47
2022/10/27 00:48:49;;;;;;;2.08;1.85;;;;;;;10.95;100.00;99348.47;4115368;28;20509;-47
2022/10/27 00:50:51;;;;;;;3.08;2.17;;;;;;;10.89;100.00;99352.13;4116735;28;20273;-48
2022/10/27 00:52:55;;;;;;;2.17;1.98;;;;;;;10.97;100.00;99340.03;4128985;28;20205;-46
2022/10/27 00:55:03;;;;;;;2.47;2.08;;;;;;;10.88;100.00;99347.72;4120189;28;20210;-46
2022/10/27 00:57:06;;;;;;;4.47;1.73;;;;;;;10.84;100.00;99345.69;4114241;28;20228;-47
2022/10/27 00:59:08;;;;;;;1.88;1.73;;;;;;;10.81;100.00;99340.66;4114724;28;20271;-47
2022/10/27 01:01:10;;;;;;;1.80;1.70;;;;;;;10.77;100.00;99350.41;4129081;28;20205;-46
2022/10/27 01:03:15;;;;;;;3.28;1.80;;;;;;;10.83;100.00;99344.84;4114684;28;20223;-46
2022/10/27 01:05:22;;;;;;;2.58;1.88;;;;;;;10.79;100.00;99348.28;4120576;28;20599;-47
2022/10/27 01:07:24;;;;;;;2.15;1.80;;;;;;;10.73;100.00;99337.41;4124485;28;20245;-47
2022/10/27 01:09:26;;;;;;;2.75;2.13;;;;;;;10.70;100.00;99340.63;4120349;28;20317;-46
2022/10/27 01:11:28;;;;;;;2.20;1.98;;;;;;;10.65;100.00;99335.00;4122762;28;20342;-47
2022/10/27 01:13:30;;;;;;;2.95;2.65;;;;;;;10.62;100.00;99338.19;4148677;28;20320;-46
2022/10/27 01:15:41;;;;;;;12.88;2.97;;;;;;;10.57;100.00;99327.94;4125364;28;20297;-47
2022/10/27 01:17:52;;;;;;;6.32;2.85;;;;;;;10.55;100.00;99329.25;4124872;28;20290;-46
2022/10/27 01:20:05;;;;;;;3.38;3.08;;;;;;;10.58;100.00;99331.50;4119048;28;20261;-46
2022/10/27 01:22:15;;;;;;;2.63;2.42;;;;;;;10.57;100.00;99330.69;4131895;28;20214;-47
2022/10/27 01:24:53;;;;;;;2.08;1.92;;;;;;;10.58;100.00;99332.34;4103610;28;20207;-47
2022/10/27 01:27:36;;;;;;;2.53;1.85;;;;;;;10.53;100.00;99329.47;4117788;28;20229;-46
2022/10/27 01:30:08;;;;;;;2.60;2.40;;;;;;;10.53;100.00;99336.81;4127549;28;21631;-47
2022/10/27 01:32:21;;;;;;;1.75;1.60;;;;;;;10.51;100.00;99345.28;4126649;28;20202;-47
2022/10/27 01:34:35;;;;;;;1.88;1.77;;;;;;;10.49;100.00;99358.34;4107913;28;20203;-46
2022/10/27 01:36:39;;;;;;;2.65;1.90;;;;;;;10.53;100.00;99358.72;4118624;28;20324;-47
2022/10/27 01:38:48;;;;;;;1.90;1.77;;;;;;;10.54;100.00;99360.41;4130899;28;20280;-47
2022/10/27 01:41:02;;;;;;;2.42;1.95;;;;;;;10.48;100.00;99356.66;4110060;28;20218;-47
2022/10/27 01:43:14;;;;;;;2.10;1.92;;;;;;;10.52;100.00;99360.63;4132448;28;20849;-47
2022/10/27 01:45:22;;;;;;;3.10;1.77;;;;;;;10.42;100.00;99356.75;4132523;28;20217;-47
2022/10/27 01:47:25;;;;;;;1.83;1.50;;;;;;;10.37;100.00;99351.97;4120208;28;20344;-47
2022/10/27 01:49:45;;;;;;;2.30;1.92;;;;;;;10.36;100.00;99353.00;4122862;28;20214;-47
2022/10/27 01:51:48;;;;;;;2.88;2.22;;;;;;;10.42;100.00;99346.63;4123914;28;20220;-46
2022/10/27 01:53:51;;;;;;;3.78;2.13;;;;;;;10.30;100.00;99342.16;4124037;28;21084;-48
2022/10/27 01:56:04;;;;;;;3.45;2.22;;;;;;;10.34;100.00;99340.66;4118766;28;20230;-46
2022/10/27 01:58:18;;;;;;;2.85;2.20;;;;;;;10.35;100.00;99345.06;4119418;28;20273;-47
2022/10/27 02:00:20;;;;;;;7.85;2.05;;;;;;;10.24;100.00;99343.06;4123620;28;20736;-47
2022/10/27 02:02:37;;;;;;;2.38;1.92;;;;;;;10.21;100.00;99343.53;4124187;28;20202;-47
2022/10/27 02:05:06;;;;;;;3.58;1.80;;;;;;;10.19;100.00;99340.19;4125787;28;20217;-47
2022/10/27 02:07:15;;;;;;;2.15;1.95;;;;;;;10.20;100.00;99347.31;4136176;28;20288;-46
2022/10/27 02:09:29;;;;;;;4.55;2.33;;;;;;;10.23;100.00;99335.94;4125020;28;20248;-47
2022/10/27 02:11:34;;;;;;;2.92;2.60;;;;;;;10.24;100.00;99348.53;4135989;28;20204;-47
2022/10/27 02:13:42;;;;;;;6.00;3.75;;;;;;;10.16;100.00;99346.13;4132761;28;20454;-46
2022/10/27 02:16:23;;;;;;;2.67;2.30;;;;;;;10.09;100.00;99348.09;4118473;28;20229;-47
2022/10/27 02:18:29;;;;;;;7.32;2.92;;;;;;;10.14;100.00;99345.53;4124125;28;20240;-47
2022/10/27 02:20:40;;;;;;;3.50;3.15;;;;;;;10.07;100.00;99352.97;4149555;28;20209;-46
2022/10/27 02:22:43;;;;;;;3.40;2.38;;;;;;;10.10;100.00;99352.50;4131999;28;20205;-47
2022/10/27 02:24:50;;;;;;;2.75;2.33;;;;;;;10.07;100.00;99347.50;4109694;28;20215;-46
2022/10/27 02:26:58;;;;;;;2.65;2.33;;;;;;;10.12;100.00;99350.34;4104952;28;20223;-47
2022/10/27 02:29:13;;;;;;;2.72;2.53;;;;;;;10.15;100.00;99341.72;4117513;28;20634;-47
2022/10/27 02:31:16;;;;;;;3.38;2.20;;;;;;;10.16;100.00;99346.13;4135041;28;20222;-46
2022/10/27 02:33:18;;;;;;;2.97;2.25;;;;;;;10.18;100.00;99338.50;4122308;28;20206;-47
2022/10/27 02:35:19;;;;;;;2.40;2.20;;;;;;;10.21;100.00;99338.06;4107870;28;20261;-47
2022/10/27 02:37:37;;;;;;;2.65;2.45;;;;;;;10.01;100.00;99338.25;4122919;28;20216;-47
2022/10/27 02:39:39;;;;;;;3.90;2.85;;;;;;;9.97;100.00;99331.56;4121890;28;20289;-47
2022/10/27 02:41:41;;;;;;;2.58;2.22;;;;;;;10.02;100.00;99339.09;4120311;28;20228;-47
2022/10/27 02:43:42;;;;;;;2.55;2.35;;;;;;;10.12;100.00;99339.41;4119560;28;20589;-46
2022/10/27 02:45:44;;;;;;;3.28;2.97;;;;;;;10.14;100.00;99340.03;4121432;28;20761;-46
2022/10/27 02:47:46;;;;;;;2.90;2.45;;;;;;;10.13;100.00;99349.28;4120936;28;20206;-47
2022/10/27 02:49:48;;;;;;;2.75;2.55;;;;;;;10.23;100.00;99349.63;4122257;28;20198;-47
2022/10/27 02:51:50;;;;;;;5.13;2.92;;;;;;;10.24;100.00;99343.94;4121335;28;20293;-47
2022/10/27 02:53:52;;;;;;;2.55;2.35;;;;;;;10.24;100.00;99349.41;4129963;28;20647;-47
2022/10/27 02:55:53;;;;;;;2.28;2.08;;;;;;;10.24;100.00;99348.53;4117798;28;20262;-47
2022/10/27 02:57:55;;;;;;;4.80;2.00;;;;;;;10.25;100.00;99345.59;4131371;28;20200;-47
2022/10/27 02:59:57;;;;;;;3.55;2.85;;;;;;;10.13;100.00;99346.56;4132409;28;20289;-46
2022/10/27 03:01:58;;;;;;;4.22;3.83;;;;;;;10.13;100.00;99344.66;4115241;28;20213;-47
2022/10/27 03:04:00;;;;;;;5.22;3.22;;;;;;;10.15;100.00;99336.25;4132930;28;20210;-46
2022/10/27 03:06:02;;;;;;;3.88;2.20;;;;;;;10.09;100.00;99334.41;4128879;28;20312;-46
2022/10/27 03:08:03;;;;;;;3.58;2.60;;;;;;;10.00;100.00;99327.50;4115072;28;20227;-46
2022/10/27 03:10:06;;;;;;;6.93;2.17;;;;;;;10.02;100.00;99326.22;4120466;28;20285;-47
2022/10/27 03:12:07;;;;;;;8.38;2.05;;;;;;;9.96;100.00;99326.31;4147717;28;20216;-47
2022/10/27 03:14:09;;;;;;;3.95;2.53;;;;;;;9.97;100.00;99325.25;4126953;28;21083;-46
2022/10/27 03:16:10;;;;;;;6.93;2.80;;;;;;;9.92;100.00;99327.81;4123163;28;20725;-46
2022/10/27 03:18:12;;;;;;;2.75;2.55;;;;;;;9.91;100.00;99326.16;4130375;28;20234;-46
2022/10/27 03:20:15;;;;;;;3.17;2.75;;;;;;;9.96;100.00;99323.59;4117953;28;20293;-47
2022/10/27 03:22:16;;;;;;;4.43;3.92;;;;;;;9.90;100.00;99330.81;4117823;28;20217;-47
2022/10/27 03:24:18;;;;;;;12.35;2.83;;;;;;;9.91;100.00;99331.63;4118712;28;20245;-46
2022/10/27 03:26:20;;;;;;;3.22;2.92;;;;;;;9.87;100.00;99331.25;4131932;28;20236;-47
2022/10/27 03:28:22;;;;;;;3.08;2.55;;;;;;;9.94;100.00;99326.53;4125913;28;20202;-47
2022/10/27 03:30:23;;;;;;;3.90;3.55;;;;;;;9.94;100.00;99325.72;4100161;28;20713;-48
2022/10/27 03:32:25;;;;;;;4.35;2.10;;;;;;;9.99;100.00;99323.13;4131256;28;20301;-46
2022/10/27 03:34:26;;;;;;;3.35;2.65;;;;;;;10.02;100.00;99323.50;4122408;28;20215;-47
2022/10/27 03:36:28;;;;;;;4.55;3.38;;;;;;;9.93;100.00;99315.81;4133654;28;20232;-46
2022/10/27 03:38:30;;;;;;;3.97;3.63;;;;;;;9.92;100.00;99325.09;4132142;28;20226;-46
2022/10/27 03:40:31;;;;;;;3.20;2.95;;;;;;;9.87;100.00;99324.94;4117641;28;20321;-46
2022/10/27 03:42:33;;;;;;;3.00;2.70;;;;;;;9.87;100.00;99319.50;4133735;28;20727;-46
2022/10/27 03:44:35;;;;;;;4.30;3.15;;;;;;;9.87;100.00;99322.22;4117335;28;20293;-46
2022/10/27 03:46:36;;;;;;;4.40;3.22;;;;;;;9.87;100.00;99324.94;4115166;28;20226;-46
2022/10/27 03:48:38;;;;;;;4.13;3.42;;;;;;;9.89;100.00;99322.81;4123088;28;20289;-46
2022/10/27 03:50:44;;;;;;;2.75;2.55;;;;;;;9.87;100.00;99314.03;4128927;28;20228;-48
2022/10/27 03:52:46;;;;;;;3.38;2.83;;;;;;;9.81;100.00;99315.72;4115858;28;20327;-47
2022/10/27 03:54:48;;;;;;;4.00;3.47;;;;;;;9.82;100.00;99311.13;4129341;28;20851;-46
2022/10/27 03:56:49;;;;;;;3.92;3.40;;;;;;;9.81;100.00;99303.97;4127932;28;20364;-47
2022/10/27 03:58:51;;;;;;;3.08;2.80;;;;;;;9.78;100.00;99309.88;4131004;28;20233;-46
2022/10/27 04:00:53;;;;;;;4.25;3.95;;;;;;;9.76;100.00;99306.56;4119708;28;20211;-46
2022/10/27 04:02:55;;;;;;;11.00;3.92;;;;;;;9.73;100.00;99310.56;4133064;28;20217;-47
2022/10/27 04:04:56;;;;;;;3.78;3.17;;;;;;;9.72;100.00;99317.09;4132203;28;20921;-47
2022/10/27 04:06:58;;;;;;;3.30;3.00;;;;;;;9.83;100.00;99312.78;4119112;28;20238;-47
2022/10/27 04:08:59;;;;;;;6.07;3.40;;;;;;;9.71;100.00;99314.59;4115644;28;20213;-46
2022/10/27 04:11:01;;;;;;;7.28;3.53;;;;;;;9.77;100.00;99305.47;4128897;28;20205;-47
2022/10/27 04:13:03;;;;;;;5.00;3.78;;;;;;;9.72;100.00;99306.16;4130760;28;20205;-47
2022/10/27 04:15:05;;;;;;;3.63;3.30;;;;;;;9.75;100.00;99299.41;4129992;28;20219;-47
2022/10/27 04:17:06;;;;;;;4.60;3.38;;;;;;;9.66;100.00;99300.75;4131266;28;20226;-47
2022/10/27 04:19:09;;;;;;;3.63;3.33;;;;;;;9.63;100.00;99304.75;4118420;28;20225;-47
2022/10/27 04:21:11;;;;;;;3.42;3.13;;;;;;;9.60;100.00;99296.19;4122875;28;20789;-47
2022/10/27 04:23:13;;;;;;;3.42;3.13;;;;;;;9.61;100.00;99303.34;4129868;28;20212;-46
2022/10/27 04:25:14;;;;;;;3.38;3.10;;;;;;;9.62;100.00;99315.94;4117908;28;20298;-47
2022/10/27 04:27:16;;;;;;;3.58;2.42;;;;;;;9.65;100.00;99310.88;4116860;28;20232;-46
2022/10/27 04:29:18;;;;;;;4.10;3.63;;;;;;;9.65;100.00;99304.53;4131308;28;20219;-47
2022/10/27 04:31:19;;;;;;;2.67;2.42;;;;;;;9.67;100.00;99313.38;4118525;28;20718;-47
2022/10/27 04:33:21;;;;;;;3.10;2.78;;;;;;;9.71;100.00;99311.84;4114184;28;20203;-46
2022/10/27 04:35:28;;;;;;;3.97;3.13;;;;;;;9.67;100.00;99302.44;4129360;28;20683;-47
2022/10/27 04:37:30;;;;;;;2.50;2.15;;;;;;;9.65;100.00;99310.00;4131342;28;20305;-46
2022/10/27 04:39:32;;;;;;;2.42;2.20;;;;;;;9.60;100.00;99312.56;4129380;28;20325;-46
2022/10/27 04:41:33;;;;;;;3.33;2.58;;;;;;;9.61;100.00;99311.53;4116027;28;20810;-48
2022/10/27 04:43:35;;;;;;;1.83;1.67;;;;;;;9.64;100.00;99305.63;4119278;28;20212;-47
2022/10/27 04:45:37;;;;;;;2.13;1.92;;;;;;;9.59;100.00;99305.44;4118428;28;20619;-47
2022/10/27 04:47:38;;;;;;;2.25;2.13;;;;;;;9.53;100.00;99312.66;4130294;28;20209;-47
2022/10/27 04:49:40;;;;;;;2.05;1.80;;;;;;;9.48;100.00;99315.22;4134184;28;20284;-46
2022/10/27 04:51:42;;;;;;;3.47;2.10;;;;;;;9.50;100.00;99312.25;4121256;28;20208;-47
2022/10/27 04:53:43;;;;;;;2.00;1.90;;;;;;;9.53;100.00;99306.34;4117298;28;20694;-46
2022/10/27 04:55:45;;;;;;;1.98;1.70;;;;;;;9.48;100.00;99315.22;4117670;28;20230;-46
2022/10/27 04:57:50;;;;;;;1.80;1.70;;;;;;;9.51;100.00;99303.00;4132577;28;20198;-47
2022/10/27 04:59:52;;;;;;;2.40;2.20;;;;;;;9.56;100.00;99305.91;4129749;28;20225;-48
2022/10/27 05:01:53;;;;;;;2.03;1.80;;;;;;;9.57;100.00;99307.56;4113983;28;20445;-46
2022/10/27 05:03:56;;;;;;;1.88;1.77;;;;;;;9.44;100.00;99302.22;4118095;28;20211;-46
2022/10/27 05:05:58;;;;;;;2.47;1.88;;;;;;;9.41;100.00;99302.69;4115906;28;20238;-47
2022/10/27 05:08:01;;;;;;;2.35;2.15;;;;;;;9.44;100.00;99297.63;4131656;28;20214;-47
2022/10/27 05:10:03;;;;;;;2.90;2.28;;;;;;;9.42;100.00;99293.44;4118844;28;20214;-46
2022/10/27 05:12:05;;;;;;;2.65;1.77;;;;;;;9.44;100.00;99291.28;4123804;28;20702;-46
2022/10/27 05:14:07;;;;;;;1.92;1.70;;;;;;;9.39;100.00;99299.31;4116402;28;20582;-47
2022/10/27 05:16:08;;;;;;;2.03;1.83;;;;;;;9.37;100.00;99296.00;4129937;28;20344;-46
2022/10/27 05:18:10;;;;;;;1.58;1.48;;;;;;;9.31;100.00;99305.06;4113557;28;20217;-47
2022/10/27 05:20:12;;;;;;;2.17;1.98;;;;;;;9.25;100.00;99309.53;4116247;28;20233;-47
2022/10/27 05:22:14;;;;;;;1.63;1.52;;;;;;;9.34;100.00;99296.44;4114461;28;20203;-46
2022/10/27 05:24:16;;;;;;;2.45;1.60;;;;;;;9.28;100.00;99302.78;4119588;28;20706;-46
2022/10/27 05:26:17;;;;;;;2.35;2.25;;;;;;;9.26;100.00;99304.88;4120084;28;20319;-48
2022/10/27 05:28:19;;;;;;;2.22;2.13;;;;;;;9.24;100.00;99291.47;4117559;28;20258;-46
2022/10/27 05:30:21;;;;;;;1.40;1.30;;;;;;;9.24;100.00;99296.09;4133094;28;20200;-46
2022/10/27 05:32:23;;;;;;;2.97;1.60;;;;;;;9.14;100.00;99306.69;4122511;28;20566;-46
2022/10/27 05:34:25;;;;;;;1.73;1.63;;;;;;;9.20;100.00;99308.50;4117667;28;20677;-47
2022/10/27 05:36:26;;;;;;;1.60;1.42;;;;;;;9.19;100.00;99304.09;4132371;28;20317;-47
2022/10/27 05:38:28;;;;;;;1.40;1.30;;;;;;;9.18;100.00;99302.44;4116664;28;20214;-46
2022/10/27 05:40:33;;;;;;;1.63;1.52;;;;;;;9.19;100.00;99298.66;4118799;28;20226;-47
2022/10/27 05:42:35;;;;;;;1.70;1.60;;;;;;;9.25;100.00;99303.22;4116397;28;20215;-46
2022/10/27 05:44:36;;;;;;;1.40;1.30;;;;;;;9.24;100.00;99301.56;4120908;28;20210;-46
2022/10/27 05:46:38;;;;;;;0.93;0.93;;;;;;;9.22;100.00;99295.50;4119737;28;20585;-46
2022/10/27 05:48:40;;;;;;;1.73;1.63;;;;;;;9.16;100.00;99288.19;4135129;28;20198;-46
2022/10/27 05:50:41;;;;;;;1.40;1.30;;;;;;;9.26;100.00;99294.81;4129496;28;20213;-49
2022/10/27 05:52:45;;;;;;;1.52;1.42;;;;;;;9.18;100.00;99291.53;4116508;28;20213;-48
2022/10/27 05:54:47;;;;;;;1.80;1.67;;;;;;;9.17;100.00;99289.84;4117762;28;20681;-46
2022/10/27 05:56:49;;;;;;;1.80;1.70;;;;;;;9.18;100.00;99288.78;4122640;28;20323;-47
2022/10/27 05:58:51;;;;;;;2.10;2.00;;;;;;;9.21;100.00;99282.91;4116522;28;20235;-47
2022/10/27 06:00:57;;;;;;;1.80;1.67;;;;;;;9.20;100.00;99292.13;4132721;28;20767;-48
2022/10/27 06:03:00;;;;;;;1.80;1.55;;;;;;;9.20;100.00;99297.59;4115779;28;20210;-47
2022/10/27 06:05:01;;;;;;;2.95;1.65;;;;;;;9.22;100.00;99284.56;4117460;28;20257;-48
2022/10/27 06:07:03;;;;;;;3.15;1.77;;;;;;;9.31;100.00;99286.81;4132970;28;20233;-46
2022/10/27 06:09:05;;;;;;;1.63;1.38;;;;;;;9.28;100.00;99291.88;4132467;28;20206;-46
2022/10/27 06:11:09;;;;;;;1.73;1.40;;;;;;;9.25;100.00;99301.34;4104129;28;20219;-46
2022/10/27 06:13:15;;;;;;;1.73;1.63;;;;;;;9.30;100.00;99303.41;4122018;28;20205;-47
2022/10/27 06:15:16;;;;;;;3.05;2.13;;;;;;;9.40;100.00;99306.44;4116049;28;20245;-47
2022/10/27 06:17:18;;;;;;;3.42;2.28;;;;;;;9.29;100.00;99305.28;4129562;28;20559;-49
2022/10/27 06:19:22;;;;;;;3.33;2.40;;;;;;;9.25;100.00;99316.88;4117394;28;20598;-47
2022/10/27 06:21:24;;;;;;;2.75;2.55;;;;;;;9.24;100.00;99312.47;4117493;28;20203;-46
2022/10/27 06:23:26;;;;;;;3.05;2.38;;;;;;;9.34;100.00;99319.13;4132195;28;20242;-47
2022/10/27 06:25:28;;;;;;;3.28;2.65;;;;;;;9.30;100.00;99317.91;4118224;28;20320;-47
2022/10/27 06:27:30;;;;;;;3.15;2.85;;;;;;;9.30;100.00;99327.97;4117947;28;20426;-47
2022/10/27 06:29:32;;;;;;;3.22;2.15;;;;;;;9.32;100.00;99328.59;4115800;28;20293;-47
2022/10/27 06:31:33;;;;;;;2.28;2.00;;;;;;;9.38;100.00;99327.69;4128834;28;20210;-47
2022/10/27 06:33:35;;;;;;;4.53;3.03;;;;;;;9.38;100.00;99324.97;4119509;28;20249;-47
2022/10/27 06:35:37;;;;;;;2.45;2.00;;;;;;;9.35;100.00;99325.44;4121615;28;20229;-47
2022/10/27 06:37:41;;;;;;;2.65;2.45;;;;;;;9.34;100.00;99334.69;4125580;28;20224;-47
2022/10/27 06:39:43;;;;;;;4.28;2.75;;;;;;;9.25;100.00;99330.53;4121433;28;20254;-47
2022/10/27 06:41:47;;;;;;;5.15;3.22;;;;;;;9.24;100.00;99334.31;4132821;28;20296;-46
2022/10/27 06:43:49;;;;;;;6.18;2.95;;;;;;;9.28;100.00;99335.56;4119390;28;21794;-47
2022/10/27 06:45:51;;;;;;;5.15;4.57;;;;;;;9.29;100.00;99329.03;4132063;28;20312;-48
2022/10/27 06:47:57;;;;;;;11.07;3.78;;;;;;;9.28;100.00;99347.31;4118843;28;20566;-46
2022/10/27 06:50:00;;;;;;;4.43;3.38;;;;;;;9.34;100.00;99345.59;4132077;28;20208;-46
2022/10/27 06:52:02;;;;;;;3.03;2.63;;;;;;;9.43;100.00;99347.81;4120471;28;20202;-47
2022/10/27 06:54:03;;;;;;;4.68;2.97;;;;;;;9.42;100.00;99348.88;4130418;28;20811;-49
2022/10/27 06:56:05;;;;;;;3.08;2.80;;;;;;;9.40;100.00;99352.88;4119483;28;20228;-47
2022/10/27 06:58:08;;;;;;;3.35;2.25;;;;;;;9.39;100.00;99348.47;4133283;28;20210;-47
2022/10/27 07:00:11;;;;;;;3.88;2.30;;;;;;;9.41;100.00;99349.94;4116280;28;20234;-48
2022/10/27 07:02:13;;;;;;;3.03;2.72;;;;;;;9.46;100.00;99358.31;4108767;28;20367;-47
2022/10/27 07:04:15;;;;;;;3.15;2.85;;;;;;;9.48;100.00;99363.56;4116548;28;20847;-47
2022/10/27 07:06:20;;;;;;;4.03;3.03;;;;;;;9.53;100.00;99360.97;4117456;28;20317;-47
2022/10/27 07:08:22;;;;;;;3.30;3.00;;;;;;;9.58;100.00;99359.28;4116657;28;20210;-47
2022/10/27 07:10:24;;;;;;;3.15;2.78;;;;;;;9.53;100.00;99359.09;4117979;28;20341;-46
2022/10/27 07:12:28;;;;;;;2.33;2.13;;;;;;;9.53;100.00;99366.44;4121772;28;20281;-47
2022/10/27 07:14:35;;;;;;;2.72;2.38;;;;;;;9.55;100.00;99364.34;4118623;28;20264;-48
2022/10/27 07:16:36;;;;;;;2.85;2.45;;;;;;;9.60;100.00;99367.22;4118636;28;20293;-46
2022/10/27 07:18:38;;;;;;;2.05;1.90;;;;;;;9.51;100.00;99371.31;4106701;28;20210;-47
2022/10/27 07:20:40;;;;;;;2.20;1.92;;;;;;;9.57;100.00;99375.88;4129580;28;20225;-47
2022/10/27 07:22:42;;;;;;;1.80;1.70;;;;;;;9.61;100.00;99369.75;4131452;28;20209;-47
2022/10/27 07:24:43;;;;;;;3.03;2.50;;;;;;;9.57;100.00;99374.00;4128864;28;20210;-47
2022/10/27 07:26:45;;;;;;;5.43;3.83;;;;;;;9.63;100.00;99377.72;4113766;28;20226;-47
2022/10/27 07:28:47;;;;;;;6.80;3.90;;;;;;;9.63;100.00;99378.53;4114394;28;20261;-47
2022/10/27 07:30:48;;;;;;;3.90;3.45;;;;;;;9.70;100.00;99378.50;4119300;28;20213;-47
2022/10/27 07:32:50;;;;;;;5.35;3.45;;;;;;;9.74;100.00;99379.75;4116537;28;20377;-48
2022/10/27 07:34:52;;;;;;;6.78;3.97;;;;;;;10.20;100.00;99381.00;4131185;28;20244;-47
2022/10/27 07:36:54;;;;;;;10.15;3.97;;;;;;;10.49;100.00;99377.50;4117454;28;20230;-47
2022/10/27 07:38:57;;;;;;;2.58;1.55;;;;;;;11.04;100.00;99373.63;4113043;28;20221;-47
2022/10/27 07:40:59;;;;;;;2.28;1.90;;;;;;;12.03;100.00;99380.91;4127397;28;20269;-47
2022/10/27 07:43:01;;;;;;;13.05;5.05;;;;;;;11.85;100.00;99366.47;4114098;28;20225;-48
2022/10/27 07:45:09;;;;;;;14.63;5.22;;;;;;;12.05;100.00;99378.75;4116193;28;20341;-49
2022/10/27 07:47:10;;;;;;;7.90;4.60;;;;;;;12.01;100.00;99369.34;4128852;28;20261;-48
2022/10/27 07:49:12;;;;;;;11.60;5.63;;;;;;;12.35;100.00;99373.97;4116504;28;20212;-47
2022/10/27 07:51:14;;;;;;;25.05;11.48;;;;;;;12.45;100.00;99376.94;4122112;28;20718;-49
2022/10/27 07:53:19;;;;;;;18.67;9.75;;;;;;;12.85;100.00;99383.28;4114121;28;20577;-48
2022/10/27 07:55:23;;;;;;;16.95;7.22;;;;;;;13.35;96.96;99392.56;4113903;28;20230;-48
2022/10/27 07:57:24;;;;;;;8.55;6.15;;;;;;;13.11;98.06;99391.00;4116896;28;20307;-49
2022/10/27 07:59:26;;;;;;;9.48;4.80;;;;;;;13.37;97.63;99381.34;4102771;28;20214;-47
2022/10/27 08:01:28;;;;;;;7.93;3.55;;;;;;;13.56;97.00;99383.59;4147429;28;20204;-48
2022/10/27 08:03:30;;;;;;;6.07;2.65;;;;;;;13.64;96.17;99385.13;4129668;28;20209;-48
2022/10/27 08:05:34;;;;;;;7.03;3.70;;;;;;;15.19;95.07;99387.44;4117888;28;20241;-48
2022/10/27 08:07:39;;;;;;;5.15;3.40;;;;;;;15.71;91.50;99383.06;4119700;28;20208;-47
2022/10/27 08:09:42;;;;;;;6.78;3.03;;;;;;;16.45;86.35;99382.84;4120217;28;20225;-47
2022/10/27 08:11:44;;;;;;;3.80;2.63;;;;;;;17.12;85.90;99392.88;4121810;28;20687;-47
2022/10/27 08:13:46;;;;;;;2.97;2.33;;;;;;;16.61;82.98;99389.28;4133674;28;20267;-48
2022/10/27 08:15:48;;;;;;;6.07;1.88;;;;;;;16.83;84.58;99385.28;4134632;28;20233;-48
2022/10/27 08:17:51;;;;;;;3.13;1.63;;;;;;;17.46;83.28;99388.56;4118866;28;20206;-49
2022/10/27 08:19:53;;;;;;;3.88;1.48;;;;;;;17.65;81.30;99381.41;4132050;28;20229;-48
2022/10/27 08:21:55;;;;;;;1.55;1.42;;;;;;;17.56;81.75;99387.75;4119471;28;20228;-48
2022/10/27 08:23:58;;;;;;;2.25;1.55;;;;;;;16.41;83.48;99390.00;4134064;28;20236;-49
2022/10/27 08:26:00;;;;;;;3.50;2.10;;;;;;;15.83;86.98;99392.81;4132579;28;20888;-48
2022/10/27 08:28:01;;;;;;;4.07;1.77;;;;;;;15.62;87.04;99384.63;4124889;28;20198;-48
2022/10/27 08:30:04;;;;;;;3.70;2.22;;;;;;;15.51;88.43;99389.19;4119834;28;20204;-47
2022/10/27 08:32:06;;;;;;;2.97;2.08;;;;;;;17.23;86.02;99390.97;4133168;28;20605;-49
2022/10/27 08:34:08;;;;;;;3.22;1.58;;;;;;;18.27;81.14;99389.47;4131519;28;20292;-50
2022/10/27 08:36:10;;;;;;;2.65;1.33;;;;;;;18.17;81.03;99395.00;4122169;28;20233;-49
2022/10/27 08:38:15;;;;;;;1.63;1.30;;;;;;;18.92;80.58;99386.63;4122984;28;20210;-47
2022/10/27 08:40:17;;;;;;;3.55;2.30;;;;;;;19.18;78.01;99388.19;4134382;28;20316;-47
2022/10/27 08:42:57;;;;;;;1.27;1.17;;;;;;;18.88;78.02;99386.34;4117814;28;20325;-48
2022/10/27 08:45:02;;;;;;;2.28;2.08;;;;;;;19.34;76.65;99385.06;4129502;28;20688;-47
2022/10/27 08:47:11;;;;;;;1.65;1.35;;;;;;;18.99;74.82;99384.38;4114339;28;20241;-49
2022/10/27 08:49:50;;;;;;;2.13;1.23;;;;;;;17.96;81.56;99393.34;4117773;28;20229;-48
2022/10/27 08:51:57;;;;;;;2.58;1.27;;;;;;;18.23;80.42;99391.13;4130241;28;20216;-49
2022/10/27 08:54:00;;;;;;;2.17;1.15;;;;;;;19.23;77.64;99385.38;4130583;28;20271;-48
2022/10/27 08:56:11;;;;;;;1.58;1.42;;;;;;;19.47;77.88;99389.16;4131906;28;20221;-48
2022/10/27 08:58:19;;;;;;;1.00;0.90;;;;;;;18.27;78.73;99378.41;4126619;28;20202;-49
2022/10/27 09:00:24;;;;;;;5.43;1.95;;;;;;;18.55;80.85;99391.69;4128731;28;20675;-49
2022/10/27 09:02:44;;;;;;;2.55;1.40;;;;;;;18.84;78.66;99389.97;4117853;28;20206;-48
2022/10/27 09:04:49;;;;;;;0.90;0.90;;;;;;;19.34;78.25;99389.78;4115201;28;20259;-50
2022/10/27 09:06:55;;;;;;;3.03;1.00;;;;;;;19.12;79.53;99381.00;4117211;28;20260;-47
2022/10/27 09:09:03;;;;;;;1.63;0.93;;;;;;;18.42;79.42;99382.03;4117468;28;20270;-48
2022/10/27 09:11:30;;;;;;;1.95;0.80;;;;;;;18.67;79.39;99378.38;4123813;28;20684;-51
2022/10/27 09:13:43;;;;;;;0.90;0.90;;;;;;;19.29;80.34;99381.47;4131162;28;20218;-47
2022/10/27 09:15:58;;;;;;;1.88;1.13;;;;;;;18.99;78.95;99365.75;4117710;28;20236;-49
2022/10/27 09:18:29;;;;;;;1.27;1.00;;;;;;;19.40;78.05;99369.22;4117946;28;20209;-48
2022/10/27 09:20:48;;;;;;;0.65;0.60;;;;;;;20.03;75.98;99365.41;4118032;28;20303;-48
2022/10/27 09:22:58;;;;;;;1.65;0.88;;;;;;;20.13;76.57;99370.94;4115590;28;20210;-48
2022/10/27 09:25:05;;;;;;;3.35;1.23;;;;;;;19.92;76.96;99361.91;4117335;28;20209;-48
2022/10/27 09:27:12;;;;;;;1.80;1.55;;;;;;;20.02;76.65;99363.78;4131611;28;20368;-48
2022/10/27 09:29:18;;;;;;;1.23;1.13;;;;;;;20.18;77.92;99368.13;4105317;28;20206;-48
2022/10/27 09:31:27;;;;;;;1.02;0.80;;;;;;;19.92;78.43;99380.53;4129179;28;20237;-48
2022/10/27 09:33:33;;;;;;;1.15;0.85;;;;;;;20.17;76.88;99381.19;4103806;28;20301;-48
2022/10/27 09:35:35;;;;;;;2.40;1.55;;;;;;;19.02;81.20;99379.06;4118461;28;20208;-49
2022/10/27 09:37:39;;;;;;;2.33;1.50;;;;;;;19.18;80.75;99379.84;4134118;28;20292;-47
2022/10/27 09:39:49;;;;;;;1.45;1.20;;;;;;;19.78;78.44;99376.75;4134866;28;20212;-48
2022/10/27 09:41:52;;;;;;;2.08;1.33;;;;;;;19.63;79.29;99387.94;4120060;28;20213;-48
2022/10/27 09:43:55;;;;;;;1.27;1.08;;;;;;;19.30;81.69;99383.97;4116948;28;20202;-48